sensor_id;sensor_type;location;lat;lon;timestamp;P1;durP1;ratioP1;P2;durP2;ratioP2
29700;SDS011;57917;51.380;-0.176;2024-03-06T00:03:16;103.78;;;54.15;;
29700;SDS011;57917;51.380;-0.176;2024-03-06T00:09:17;107.00;;;54.88;;
29700;SDS011;57917;51.380;-0.176;2024-03-06T00:15:16;119.82;;;58.30;;
29700;SDS011;57917;51.380;-0.176;2024-03-06T00:21:07;37.92;;;23.42;;
29700;SDS011;57917;51.380;-0.176;2024-03-06T00:27:11;38.33;;;21.02;;
29700;SDS011;57917;51.380;-0.176;2024-03-06T00:39:29;143.38;;;55.75;;
29700;SDS011;57917;51.380;-0.176;2024-03-06T00:45:24;189.50;;;65.93;;
29700;SDS011;57917;51.380;-0.176;2024-03-06T00:51:44;202.25;;;63.70;;
29700;SDS011;57917;51.380;-0.176;2024-03-06T00:58:05;182.02;;;64.88;;
29700;SDS011;57917;51.380;-0.176;2024-03-06T01:04:40;110.18;;;49.85;;
29700;SDS011;57917;51.380;-0.176;2024-03-06T01:11:26;109.45;;;50.40;;
29700;SDS011;57917;51.380;-0.176;2024-03-06T01:17:46;124.32;;;55.65;;
29700;SDS011;57917;51.380;-0.176;2024-03-06T01:23:41;102.78;;;51.67;;
29700;SDS011;57917;51.380;-0.176;2024-03-06T01:29:32;98.30;;;50.17;;
29700;SDS011;57917;51.380;-0.176;2024-03-06T01:35:23;65.68;;;36.83;;
29700;SDS011;57917;51.380;-0.176;2024-03-06T01:41:23;58.45;;;37.28;;
29700;SDS011;57917;51.380;-0.176;2024-03-06T01:47:17;83.63;;;35.00;;
29700;SDS011;57917;51.380;-0.176;2024-03-06T02:01:41;200.70;;;59.63;;
29700;SDS011;57917;51.380;-0.176;2024-03-06T02:08:09;296.52;;;74.45;;
29700;SDS011;57917;51.380;-0.176;2024-03-06T02:14:09;269.25;;;71.88;;
29700;SDS011;57917;51.380;-0.176;2024-03-06T02:19:58;259.92;;;71.60;;
29700;SDS011;57917;51.380;-0.176;2024-03-06T02:25:52;246.80;;;70.00;;
29700;SDS011;57917;51.380;-0.176;2024-03-06T02:31:44;307.58;;;77.75;;
29700;SDS011;57917;51.380;-0.176;2024-03-06T02:37:33;300.70;;;77.00;;
29700;SDS011;57917;51.380;-0.176;2024-03-06T02:43:28;289.35;;;73.90;;
29700;SDS011;57917;51.380;-0.176;2024-03-06T02:49:23;309.42;;;74.65;;
29700;SDS011;57917;51.380;-0.176;2024-03-06T02:55:15;332.33;;;76.00;;
29700;SDS011;57917;51.380;-0.176;2024-03-06T03:01:18;309.60;;;76.50;;
29700;SDS011;57917;51.380;-0.176;2024-03-06T03:07:06;411.80;;;84.10;;
29700;SDS011;57917;51.380;-0.176;2024-03-06T03:12:59;458.10;;;92.00;;
29700;SDS011;57917;51.380;-0.176;2024-03-06T03:18:55;292.20;;;75.60;;
29700;SDS011;57917;51.380;-0.176;2024-03-06T03:24:47;295.92;;;73.00;;
29700;SDS011;57917;51.380;-0.176;2024-03-06T03:30:42;305.85;;;72.72;;
29700;SDS011;57917;51.380;-0.176;2024-03-06T03:36:43;298.67;;;76.25;;
29700;SDS011;57917;51.380;-0.176;2024-03-06T03:42:46;292.20;;;76.50;;
29700;SDS011;57917;51.380;-0.176;2024-03-06T03:48:45;297.02;;;75.13;;
29700;SDS011;57917;51.380;-0.176;2024-03-06T03:54:50;293.85;;;78.28;;
29700;SDS011;57917;51.380;-0.176;2024-03-06T04:00:54;268.70;;;71.55;;
29700;SDS011;57917;51.380;-0.176;2024-03-06T04:07:10;253.88;;;71.90;;
29700;SDS011;57917;51.380;-0.176;2024-03-06T04:12:59;268.90;;;75.10;;
29700;SDS011;57917;51.380;-0.176;2024-03-06T04:18:52;276.48;;;76.75;;
29700;SDS011;57917;51.380;-0.176;2024-03-06T04:25:14;267.73;;;74.63;;
29700;SDS011;57917;51.380;-0.176;2024-03-06T04:31:09;174.63;;;63.53;;
29700;SDS011;57917;51.380;-0.176;2024-03-06T04:37:06;203.25;;;64.75;;
29700;SDS011;57917;51.380;-0.176;2024-03-06T04:43:01;186.52;;;66.43;;
29700;SDS011;57917;51.380;-0.176;2024-03-06T04:48:57;182.80;;;65.05;;
29700;SDS011;57917;51.380;-0.176;2024-03-06T04:54:55;157.98;;;61.13;;
29700;SDS011;57917;51.380;-0.176;2024-03-06T05:00:47;196.85;;;65.78;;
29700;SDS011;57917;51.380;-0.176;2024-03-06T05:06:37;208.68;;;69.47;;
29700;SDS011;57917;51.380;-0.176;2024-03-06T05:12:42;229.98;;;70.45;;
29700;SDS011;57917;51.380;-0.176;2024-03-06T05:18:46;220.43;;;70.03;;
29700;SDS011;57917;51.380;-0.176;2024-03-06T05:24:51;177.80;;;64.15;;
29700;SDS011;57917;51.380;-0.176;2024-03-06T05:30:55;199.10;;;68.15;;
29700;SDS011;57917;51.380;-0.176;2024-03-06T05:37:12;245.80;;;74.38;;
29700;SDS011;57917;51.380;-0.176;2024-03-06T05:43:19;213.27;;;67.78;;
29700;SDS011;57917;51.380;-0.176;2024-03-06T05:49:24;205.02;;;70.43;;
29700;SDS011;57917;51.380;-0.176;2024-03-06T05:55:32;196.88;;;70.40;;
29700;SDS011;57917;51.380;-0.176;2024-03-06T06:01:36;273.23;;;78.45;;
29700;SDS011;57917;51.380;-0.176;2024-03-06T06:07:24;303.00;;;83.22;;
29700;SDS011;57917;51.380;-0.176;2024-03-06T06:13:11;323.80;;;85.45;;
29700;SDS011;57917;51.380;-0.176;2024-03-06T06:18:58;274.35;;;78.28;;
29700;SDS011;57917;51.380;-0.176;2024-03-06T06:24:47;279.55;;;78.63;;
29700;SDS011;57917;51.380;-0.176;2024-03-06T06:30:35;245.23;;;77.00;;
29700;SDS011;57917;51.380;-0.176;2024-03-06T06:36:23;223.85;;;74.70;;
29700;SDS011;57917;51.380;-0.176;2024-03-06T06:42:10;242.63;;;77.50;;
29700;SDS011;57917;51.380;-0.176;2024-03-06T06:48:12;265.95;;;78.88;;
29700;SDS011;57917;51.380;-0.176;2024-03-06T06:54:00;66.00;;;18.98;;
29700;SDS011;57917;51.380;-0.176;2024-03-06T06:59:47;18.75;;;7.38;;
29700;SDS011;57917;51.380;-0.176;2024-03-06T07:05:48;35.55;;;14.25;;
29700;SDS011;57917;51.380;-0.176;2024-03-06T07:11:38;23.95;;;9.68;;
29700;SDS011;57917;51.380;-0.176;2024-03-06T07:17:28;20.08;;;8.82;;
29700;SDS011;57917;51.380;-0.176;2024-03-06T07:23:15;184.82;;;16.25;;
29700;SDS011;57917;51.380;-0.176;2024-03-06T07:29:44;18.83;;;9.15;;
29700;SDS011;57917;51.380;-0.176;2024-03-06T07:36:18;24.73;;;12.52;;
29700;SDS011;57917;51.380;-0.176;2024-03-06T07:42:06;18.30;;;10.13;;
29700;SDS011;57917;51.380;-0.176;2024-03-06T07:47:57;25.87;;;12.93;;
29700;SDS011;57917;51.380;-0.176;2024-03-06T07:53:52;40.00;;;11.15;;
29700;SDS011;57917;51.380;-0.176;2024-03-06T07:59:48;26.05;;;11.13;;
29700;SDS011;57917;51.380;-0.176;2024-03-06T08:05:37;37.53;;;15.35;;
29700;SDS011;57917;51.380;-0.176;2024-03-06T08:11:23;35.88;;;12.52;;
29700;SDS011;57917;51.380;-0.176;2024-03-06T08:17:11;38.13;;;24.17;;
29700;SDS011;57917;51.380;-0.176;2024-03-06T08:22:58;147.40;;;66.82;;
29700;SDS011;57917;51.380;-0.176;2024-03-06T08:28:45;30.95;;;18.42;;
29700;SDS011;57917;51.380;-0.176;2024-03-06T08:34:33;109.28;;;57.85;;
29700;SDS011;57917;51.380;-0.176;2024-03-06T08:40:20;40.00;;;24.73;;
29700;SDS011;57917;51.380;-0.176;2024-03-06T08:46:12;57.80;;;35.92;;
29700;SDS011;57917;51.380;-0.176;2024-03-06T08:52:13;39.17;;;17.70;;
29700;SDS011;57917;51.380;-0.176;2024-03-06T08:58:10;40.85;;;17.63;;
29700;SDS011;57917;51.380;-0.176;2024-03-06T09:04:01;69.68;;;37.67;;
29700;SDS011;57917;51.380;-0.176;2024-03-06T09:09:50;77.30;;;42.90;;
29700;SDS011;57917;51.380;-0.176;2024-03-06T09:15:41;54.17;;;28.40;;
29700;SDS011;57917;51.380;-0.176;2024-03-06T09:21:56;48.42;;;22.63;;
29700;SDS011;57917;51.380;-0.176;2024-03-06T09:27:44;24.73;;;9.95;;
29700;SDS011;57917;51.380;-0.176;2024-03-06T09:33:32;27.65;;;15.70;;
29700;SDS011;57917;51.380;-0.176;2024-03-06T09:39:22;26.17;;;12.50;;
29700;SDS011;57917;51.380;-0.176;2024-03-06T09:45:11;22.38;;;10.55;;
29700;SDS011;57917;51.380;-0.176;2024-03-06T09:51:00;30.25;;;14.40;;
29700;SDS011;57917;51.380;-0.176;2024-03-06T09:56:49;23.65;;;9.18;;
29700;SDS011;57917;51.380;-0.176;2024-03-06T10:02:45;122.80;;;51.10;;
29700;SDS011;57917;51.380;-0.176;2024-03-06T10:08:41;55.80;;;27.23;;
29700;SDS011;57917;51.380;-0.176;2024-03-06T10:14:28;222.43;;;120.20;;
29700;SDS011;57917;51.380;-0.176;2024-03-06T10:20:23;143.90;;;86.53;;
29700;SDS011;57917;51.380;-0.176;2024-03-06T10:26:14;298.27;;;150.65;;
29700;SDS011;57917;51.380;-0.176;2024-03-06T10:32:01;270.08;;;142.80;;
29700;SDS011;57917;51.380;-0.176;2024-03-06T10:37:49;268.05;;;142.20;;
29700;SDS011;57917;51.380;-0.176;2024-03-06T10:43:42;297.35;;;150.20;;
29700;SDS011;57917;51.380;-0.176;2024-03-06T10:49:43;145.88;;;101.32;;
29700;SDS011;57917;51.380;-0.176;2024-03-06T10:55:30;294.77;;;156.50;;
29700;SDS011;57917;51.380;-0.176;2024-03-06T11:01:20;184.00;;;127.38;;
29700;SDS011;57917;51.380;-0.176;2024-03-06T11:07:08;215.70;;;135.25;;
29700;SDS011;57917;51.380;-0.176;2024-03-06T11:13:01;286.98;;;168.85;;
29700;SDS011;57917;51.380;-0.176;2024-03-06T11:19:05;289.35;;;173.50;;
29700;SDS011;57917;51.380;-0.176;2024-03-06T11:24:56;224.40;;;155.63;;
29700;SDS011;57917;51.380;-0.176;2024-03-06T11:30:57;270.70;;;169.27;;
29700;SDS011;57917;51.380;-0.176;2024-03-06T11:36:53;234.30;;;151.43;;
29700;SDS011;57917;51.380;-0.176;2024-03-06T11:42:45;329.60;;;190.23;;
29700;SDS011;57917;51.380;-0.176;2024-03-06T11:48:36;248.25;;;156.27;;
29700;SDS011;57917;51.380;-0.176;2024-03-06T11:54:24;328.27;;;175.48;;
29700;SDS011;57917;51.380;-0.176;2024-03-06T12:00:13;290.42;;;176.13;;
29700;SDS011;57917;51.380;-0.176;2024-03-06T12:06:01;336.73;;;193.77;;
29700;SDS011;57917;51.380;-0.176;2024-03-06T12:11:49;357.13;;;190.73;;
29700;SDS011;57917;51.380;-0.176;2024-03-06T12:17:44;390.02;;;189.93;;
29700;SDS011;57917;51.380;-0.176;2024-03-06T12:23:33;466.25;;;183.43;;
29700;SDS011;57917;51.380;-0.176;2024-03-06T12:29:38;402.38;;;162.75;;
29700;SDS011;57917;51.380;-0.176;2024-03-06T12:35:37;390.23;;;172.70;;
29700;SDS011;57917;51.380;-0.176;2024-03-06T12:41:37;354.45;;;161.57;;
29700;SDS011;57917;51.380;-0.176;2024-03-06T12:47:30;435.58;;;165.10;;
29700;SDS011;57917;51.380;-0.176;2024-03-06T12:53:20;425.27;;;166.82;;
29700;SDS011;57917;51.380;-0.176;2024-03-06T12:59:08;351.10;;;152.25;;
29700;SDS011;57917;51.380;-0.176;2024-03-06T13:05:07;375.42;;;158.82;;
29700;SDS011;57917;51.380;-0.176;2024-03-06T13:10:54;497.98;;;182.35;;
29700;SDS011;57917;51.380;-0.176;2024-03-06T13:16:42;368.67;;;157.70;;
29700;SDS011;57917;51.380;-0.176;2024-03-06T13:22:33;294.40;;;150.45;;
29700;SDS011;57917;51.380;-0.176;2024-03-06T13:28:28;331.92;;;159.25;;
29700;SDS011;57917;51.380;-0.176;2024-03-06T13:34:27;348.67;;;168.05;;
29700;SDS011;57917;51.380;-0.176;2024-03-06T13:41:04;314.98;;;154.13;;
29700;SDS011;57917;51.380;-0.176;2024-03-06T13:47:26;368.58;;;160.27;;
29700;SDS011;57917;51.380;-0.176;2024-03-06T13:53:29;401.95;;;162.25;;
29700;SDS011;57917;51.380;-0.176;2024-03-06T13:59:24;390.98;;;157.10;;
29700;SDS011;57917;51.380;-0.176;2024-03-06T14:05:14;360.10;;;154.60;;
29700;SDS011;57917;51.380;-0.176;2024-03-06T14:11:02;362.55;;;153.30;;
29700;SDS011;57917;51.380;-0.176;2024-03-06T14:16:51;318.65;;;144.95;;
29700;SDS011;57917;51.380;-0.176;2024-03-06T14:22:38;355.05;;;154.52;;
29700;SDS011;57917;51.380;-0.176;2024-03-06T14:28:28;311.10;;;149.00;;
29700;SDS011;57917;51.380;-0.176;2024-03-06T14:34:20;307.47;;;149.37;;
29700;SDS011;57917;51.380;-0.176;2024-03-06T14:40:10;303.90;;;152.38;;
29700;SDS011;57917;51.380;-0.176;2024-03-06T14:46:00;346.80;;;155.05;;
29700;SDS011;57917;51.380;-0.176;2024-03-06T14:51:47;336.73;;;156.95;;
29700;SDS011;57917;51.380;-0.176;2024-03-06T14:57:40;208.18;;;124.22;;
29700;SDS011;57917;51.380;-0.176;2024-03-06T15:03:27;355.15;;;171.50;;
29700;SDS011;57917;51.380;-0.176;2024-03-06T15:09:17;331.88;;;164.95;;
29700;SDS011;57917;51.380;-0.176;2024-03-06T15:15:08;358.85;;;172.23;;
29700;SDS011;57917;51.380;-0.176;2024-03-06T15:20:55;280.98;;;155.95;;
29700;SDS011;57917;51.380;-0.176;2024-03-06T15:26:42;315.77;;;156.07;;
29700;SDS011;57917;51.380;-0.176;2024-03-06T15:32:29;277.52;;;146.57;;
29700;SDS011;57917;51.380;-0.176;2024-03-06T15:38:26;225.85;;;139.32;;
29700;SDS011;57917;51.380;-0.176;2024-03-06T15:44:18;299.15;;;159.95;;
29700;SDS011;57917;51.380;-0.176;2024-03-06T15:50:06;278.08;;;150.55;;
29700;SDS011;57917;51.380;-0.176;2024-03-06T15:55:57;239.35;;;149.98;;
29700;SDS011;57917;51.380;-0.176;2024-03-06T16:01:47;288.90;;;166.55;;
29700;SDS011;57917;51.380;-0.176;2024-03-06T16:07:42;225.98;;;148.15;;
29700;SDS011;57917;51.380;-0.176;2024-03-06T16:13:51;143.63;;;110.70;;
29700;SDS011;57917;51.380;-0.176;2024-03-06T16:19:41;306.10;;;175.63;;
29700;SDS011;57917;51.380;-0.176;2024-03-06T16:25:42;312.77;;;167.05;;
29700;SDS011;57917;51.380;-0.176;2024-03-06T16:31:38;374.25;;;176.60;;
29700;SDS011;57917;51.380;-0.176;2024-03-06T16:37:28;364.33;;;172.32;;
29700;SDS011;57917;51.380;-0.176;2024-03-06T16:49:06;277.83;;;149.52;;
29700;SDS011;57917;51.380;-0.176;2024-03-06T16:54:53;276.38;;;148.43;;
29700;SDS011;57917;51.380;-0.176;2024-03-06T17:00:40;322.90;;;156.68;;
29700;SDS011;57917;51.380;-0.176;2024-03-06T17:06:28;325.27;;;154.65;;
29700;SDS011;57917;51.380;-0.176;2024-03-06T17:12:15;335.20;;;158.52;;
29700;SDS011;57917;51.380;-0.176;2024-03-06T17:18:02;326.92;;;152.90;;
29700;SDS011;57917;51.380;-0.176;2024-03-06T17:23:50;329.73;;;150.38;;
29700;SDS011;57917;51.380;-0.176;2024-03-06T17:29:41;313.08;;;148.77;;
29700;SDS011;57917;51.380;-0.176;2024-03-06T17:35:29;307.92;;;144.93;;
29700;SDS011;57917;51.380;-0.176;2024-03-06T17:41:16;313.77;;;143.77;;
29700;SDS011;57917;51.380;-0.176;2024-03-06T17:47:04;277.80;;;139.90;;
29700;SDS011;57917;51.380;-0.176;2024-03-06T17:52:53;288.55;;;136.20;;
29700;SDS011;57917;51.380;-0.176;2024-03-06T17:58:46;329.17;;;141.05;;
29700;SDS011;57917;51.380;-0.176;2024-03-06T18:04:40;355.17;;;142.35;;
29700;SDS011;57917;51.380;-0.176;2024-03-06T18:10:32;352.93;;;139.63;;
29700;SDS011;57917;51.380;-0.176;2024-03-06T18:16:26;332.52;;;137.90;;
29700;SDS011;57917;51.380;-0.176;2024-03-06T18:29:06;358.33;;;130.70;;
29700;SDS011;57917;51.380;-0.176;2024-03-06T18:35:08;348.38;;;135.15;;
29700;SDS011;57917;51.380;-0.176;2024-03-06T18:41:32;347.30;;;129.63;;
29700;SDS011;57917;51.380;-0.176;2024-03-06T18:47:22;364.33;;;130.88;;
29700;SDS011;57917;51.380;-0.176;2024-03-06T18:53:19;348.05;;;128.77;;
29700;SDS011;57917;51.380;-0.176;2024-03-06T18:59:16;308.85;;;118.72;;
29700;SDS011;57917;51.380;-0.176;2024-03-06T19:05:05;307.88;;;119.20;;
29700;SDS011;57917;51.380;-0.176;2024-03-06T19:16:56;284.50;;;109.93;;
29700;SDS011;57917;51.380;-0.176;2024-03-06T19:23:04;297.55;;;110.68;;
29700;SDS011;57917;51.380;-0.176;2024-03-06T19:29:46;310.77;;;111.68;;
29700;SDS011;57917;51.380;-0.176;2024-03-06T19:35:38;311.40;;;114.65;;
29700;SDS011;57917;51.380;-0.176;2024-03-06T19:41:27;303.20;;;111.80;;
29700;SDS011;57917;51.380;-0.176;2024-03-06T19:47:14;274.95;;;105.50;;
29700;SDS011;57917;51.380;-0.176;2024-03-06T19:53:11;266.88;;;102.32;;
29700;SDS011;57917;51.380;-0.176;2024-03-06T19:58:59;257.60;;;99.25;;
29700;SDS011;57917;51.380;-0.176;2024-03-06T20:04:47;348.48;;;109.40;;
29700;SDS011;57917;51.380;-0.176;2024-03-06T20:10:39;339.00;;;106.05;;
29700;SDS011;57917;51.380;-0.176;2024-03-06T20:16:35;309.10;;;98.57;;
29700;SDS011;57917;51.380;-0.176;2024-03-06T20:23:11;329.08;;;102.28;;
29700;SDS011;57917;51.380;-0.176;2024-03-06T20:29:27;311.77;;;99.30;;
29700;SDS011;57917;51.380;-0.176;2024-03-06T20:35:20;367.10;;;103.60;;
29700;SDS011;57917;51.380;-0.176;2024-03-06T20:41:15;370.33;;;100.85;;
29700;SDS011;57917;51.380;-0.176;2024-03-06T20:47:11;404.10;;;105.05;;
29700;SDS011;57917;51.380;-0.176;2024-03-06T20:53:31;392.65;;;106.22;;
29700;SDS011;57917;51.380;-0.176;2024-03-06T20:59:25;297.35;;;95.75;;
29700;SDS011;57917;51.380;-0.176;2024-03-06T21:05:31;299.67;;;94.75;;
29700;SDS011;57917;51.380;-0.176;2024-03-06T21:11:18;286.30;;;93.15;;
29700;SDS011;57917;51.380;-0.176;2024-03-06T21:17:06;403.75;;;102.53;;
29700;SDS011;57917;51.380;-0.176;2024-03-06T21:22:58;351.33;;;96.07;;
29700;SDS011;57917;51.380;-0.176;2024-03-06T21:28:47;341.55;;;94.22;;
29700;SDS011;57917;51.380;-0.176;2024-03-06T21:34:40;396.02;;;96.03;;
29700;SDS011;57917;51.380;-0.176;2024-03-06T21:40:29;340.20;;;94.30;;
29700;SDS011;57917;51.380;-0.176;2024-03-06T21:46:18;340.02;;;90.88;;
29700;SDS011;57917;51.380;-0.176;2024-03-06T21:52:06;351.10;;;90.15;;
29700;SDS011;57917;51.380;-0.176;2024-03-06T21:57:57;341.17;;;91.05;;
29700;SDS011;57917;51.380;-0.176;2024-03-06T22:03:49;296.80;;;87.10;;
29700;SDS011;57917;51.380;-0.176;2024-03-06T22:09:36;317.60;;;89.43;;
29700;SDS011;57917;51.380;-0.176;2024-03-06T22:15:23;268.50;;;81.75;;
29700;SDS011;57917;51.380;-0.176;2024-03-06T22:21:14;321.77;;;88.57;;
29700;SDS011;57917;51.380;-0.176;2024-03-06T22:27:04;293.23;;;84.85;;
29700;SDS011;57917;51.380;-0.176;2024-03-06T22:32:59;294.35;;;83.78;;
29700;SDS011;57917;51.380;-0.176;2024-03-06T22:38:47;311.07;;;86.37;;
29700;SDS011;57917;51.380;-0.176;2024-03-06T22:44:36;424.45;;;95.75;;
29700;SDS011;57917;51.380;-0.176;2024-03-06T22:50:25;278.48;;;84.88;;
29700;SDS011;57917;51.380;-0.176;2024-03-06T22:56:14;120.80;;;59.55;;
29700;SDS011;57917;51.380;-0.176;2024-03-06T23:02:05;233.57;;;73.97;;
29700;SDS011;57917;51.380;-0.176;2024-03-06T23:07:57;43.35;;;25.25;;
29700;SDS011;57917;51.380;-0.176;2024-03-06T23:13:47;12.40;;;3.47;;
29700;SDS011;57917;51.380;-0.176;2024-03-06T23:19:39;11.13;;;4.63;;
29700;SDS011;57917;51.380;-0.176;2024-03-06T23:25:41;11.13;;;3.90;;
29700;SDS011;57917;51.380;-0.176;2024-03-06T23:31:31;5.90;;;3.13;;
29700;SDS011;57917;51.380;-0.176;2024-03-06T23:37:18;6.32;;;3.03;;
29700;SDS011;57917;51.380;-0.176;2024-03-06T23:43:08;20.70;;;10.20;;
29700;SDS011;57917;51.380;-0.176;2024-03-06T23:48:56;262.30;;;74.30;;
29700;SDS011;57917;51.380;-0.176;2024-03-06T23:54:49;340.77;;;82.00;;
